Time;durP1;ratioP1;P1;durP2;ratioP2;P2;SDS_P1;SDS_P2;PMS_P1;PMS_P2;Temp;Humidity;BMP_temperature;BMP_pressure;BME280_temperature;BME280_humidity;BME280_pressure;Samples;Min_cycle;Max_cycle;Signal;HPM_P1;HPM_P2
2023/08/12 00:01:55;;;;;;;3.28;2.78;;;22.80;99.90;;;;;;7389624;19;20169;-75
2023/08/12 00:04:21;;;;;;;4.60;2.97;;;22.70;99.90;;;;;;7389195;19;20468;-77
2023/08/12 00:06:47;;;;;;;3.35;2.78;;;22.50;99.90;;;;;;7390294;19;20237;-75
2023/08/12 00:09:15;;;;;;;5.05;2.92;;;22.50;99.90;;;;;;7390344;19;20225;-75
2023/08/12 00:11:41;;;;;;;5.78;3.13;;;22.60;99.90;;;;;;7389724;19;20135;-75
2023/08/12 00:14:06;;;;;;;3.05;2.67;;;22.60;99.90;;;;;;7390504;19;20157;-76
2023/08/12 00:16:32;;;;;;;2.90;2.70;;;22.60;99.90;;;;;;7393245;19;20619;-75
2023/08/12 00:18:58;;;;;;;3.38;2.60;;;22.50;99.90;;;;;;7388919;19;20923;-76
2023/08/12 00:21:25;;;;;;;3.33;2.90;;;22.60;99.90;;;;;;7389199;19;20145;-75
2023/08/12 00:23:51;;;;;;;3.22;2.72;;;22.60;99.90;;;;;;7386018;19;20161;-76
2023/08/12 00:26:17;;;;;;;3.75;3.03;;;22.50;99.90;;;;;;7382788;19;20158;-75
2023/08/12 00:28:42;;;;;;;4.53;2.70;;;22.60;99.90;;;;;;7389128;19;20152;-76
2023/08/12 00:31:08;;;;;;;5.50;2.58;;;22.70;99.90;;;;;;7389535;19;20143;-76
2023/08/12 00:33:34;;;;;;;3.13;2.83;;;22.80;99.90;;;;;;7389642;19;20135;-76
2023/08/12 00:36:00;;;;;;;4.70;3.17;;;22.70;99.90;;;;;;7391022;19;20223;-75
2023/08/12 00:38:25;;;;;;;3.58;2.78;;;22.70;99.90;;;;;;7387677;19;20134;-76
2023/08/12 00:40:51;;;;;;;3.60;3.10;;;22.70;99.90;;;;;;7390145;19;20158;-75
2023/08/12 00:43:17;;;;;;;4.53;3.15;;;22.60;99.90;;;;;;7386758;19;20153;-75
2023/08/12 00:45:43;;;;;;;3.58;3.28;;;22.50;99.90;;;;;;7388264;19;20155;-75
2023/08/12 00:48:10;;;;;;;3.70;2.85;;;22.60;99.90;;;;;;7390473;19;20220;-76
2023/08/12 00:50:40;;;;;;;6.18;3.03;;;22.70;99.90;;;;;;7387194;19;20131;-75
2023/08/12 00:53:06;;;;;;;5.03;2.97;;;22.60;99.90;;;;;;7389427;19;20147;-75
2023/08/12 00:55:33;;;;;;;4.43;3.00;;;22.60;99.90;;;;;;7389374;19;20618;-75
2023/08/12 00:57:59;;;;;;;4.20;2.78;;;22.30;99.90;;;;;;7388883;19;20147;-76
2023/08/12 01:00:25;;;;;;;2.90;2.60;;;22.40;99.90;;;;;;7390507;19;20142;-75
2023/08/12 01:02:52;;;;;;;5.18;3.15;;;22.40;99.90;;;;;;7387848;19;20195;-76
2023/08/12 01:05:19;;;;;;;3.40;3.08;;;22.30;99.90;;;;;;7390570;19;20166;-75
2023/08/12 01:07:46;;;;;;;3.58;3.10;;;22.20;99.90;;;;;;7388767;19;20138;-75
2023/08/12 01:10:15;;;;;;;3.60;2.88;;;22.20;99.90;;;;;;7386857;19;20150;-76
2023/08/12 01:12:58;;;;;;;3.33;3.03;;;22.10;99.90;;;;;;7388457;19;20574;-76
2023/08/12 01:15:26;;;;;;;3.42;2.63;;;22.10;99.90;;;;;;7386852;19;20462;-76
2023/08/12 01:17:54;;;;;;;4.65;2.80;;;22.10;99.90;;;;;;7390167;19;20130;-75
2023/08/12 01:20:30;;;;;;;3.38;2.92;;;22.20;99.90;;;;;;7389980;19;20142;-76
2023/08/12 01:23:11;;;;;;;6.25;2.90;;;22.20;99.90;;;;;;7386409;19;20137;-77
2023/08/12 01:25:37;;;;;;;3.63;3.10;;;21.90;99.90;;;;;;7389794;19;20123;-76
2023/08/12 01:28:04;;;;;;;3.13;2.80;;;22.10;99.90;;;;;;7390841;19;20134;-76
2023/08/12 01:30:30;;;;;;;3.38;2.85;;;22.10;99.90;;;;;;7388379;19;20141;-75
2023/08/12 01:33:08;;;;;;;8.35;3.20;;;22.10;99.90;;;;;;7388799;19;20131;-76
2023/08/12 01:35:39;;;;;;;3.65;2.75;;;22.10;99.90;;;;;;7390718;19;20126;-76
2023/08/12 01:38:08;;;;;;;2.80;2.60;;;22.30;99.90;;;;;;7385668;19;20138;-76
2023/08/12 01:40:35;;;;;;;3.13;2.80;;;22.20;99.90;;;;;;7389088;19;20127;-76
2023/08/12 01:43:08;;;;;;;3.38;2.67;;;22.20;99.90;;;;;;7385747;19;20650;-76
2023/08/12 01:45:34;;;;;;;3.65;2.80;;;22.10;99.90;;;;;;7389923;19;20134;-75
2023/08/12 01:47:59;;;;;;;3.90;2.70;;;21.90;99.90;;;;;;7386419;19;20205;-78
2023/08/12 01:50:25;;;;;;;2.80;2.60;;;21.90;99.90;;;;;;7385667;19;20148;-75
2023/08/12 01:52:51;;;;;;;3.78;2.90;;;21.80;99.90;;;;;;7386000;19;20463;-75
2023/08/12 01:55:17;;;;;;;2.95;2.65;;;21.60;99.90;;;;;;7387665;19;20142;-75
2023/08/12 01:57:43;;;;;;;3.03;2.72;;;21.60;99.90;;;;;;7388797;19;20562;-74
2023/08/12 02:00:09;;;;;;;3.88;2.83;;;21.80;99.90;;;;;;7385953;19;20131;-75
2023/08/12 02:02:35;;;;;;;2.80;2.60;;;21.70;99.90;;;;;;7383122;19;20149;-75
2023/08/12 02:05:00;;;;;;;3.58;2.58;;;21.70;99.90;;;;;;7384905;19;20639;-76
2023/08/12 02:07:26;;;;;;;2.92;2.60;;;21.70;99.90;;;;;;7386709;19;20222;-76
2023/08/12 02:09:52;;;;;;;3.20;2.60;;;21.70;99.90;;;;;;7386219;19;20230;-75
2023/08/12 02:12:17;;;;;;;3.45;3.13;;;21.60;99.90;;;;;;7388760;19;20221;-75
2023/08/12 02:14:43;;;;;;;5.05;2.90;;;21.60;99.90;;;;;;7386350;19;20149;-75
2023/08/12 02:17:09;;;;;;;4.28;3.13;;;21.50;99.90;;;;;;7387751;19;20126;-76
2023/08/12 02:19:35;;;;;;;3.47;2.90;;;21.60;99.90;;;;;;7387815;19;20134;-76
2023/08/12 02:22:05;;;;;;;3.20;2.67;;;21.40;99.90;;;;;;7385006;19;20254;-75
2023/08/12 02:24:31;;;;;;;3.65;3.30;;;21.40;99.90;;;;;;7386854;19;20134;-75
2023/08/12 02:26:56;;;;;;;3.60;2.55;;;21.50;99.90;;;;;;7386855;19;20446;-76
2023/08/12 02:29:22;;;;;;;5.18;3.10;;;21.60;99.90;;;;;;7385213;19;20813;-75
2023/08/12 02:31:48;;;;;;;4.28;3.58;;;21.80;99.90;;;;;;7386145;19;20461;-75
2023/08/12 02:34:13;;;;;;;5.13;4.10;;;21.90;99.90;;;;;;7386106;19;20142;-76
2023/08/12 02:36:39;;;;;;;7.47;3.60;;;22.20;99.90;;;;;;7386066;19;20135;-76
2023/08/12 02:39:05;;;;;;;4.07;3.50;;;22.20;99.90;;;;;;7388574;19;20834;-76
2023/08/12 02:41:31;;;;;;;5.70;3.70;;;22.10;99.90;;;;;;7384987;19;20461;-75
2023/08/12 02:43:56;;;;;;;5.05;3.58;;;22.00;99.90;;;;;;7386222;19;20135;-75
2023/08/12 02:46:23;;;;;;;4.03;3.20;;;21.80;99.90;;;;;;7386293;19;20137;-76
2023/08/12 02:48:48;;;;;;;8.13;3.28;;;22.00;99.90;;;;;;7385510;19;20154;-75
2023/08/12 02:51:14;;;;;;;4.57;3.38;;;22.00;99.90;;;;;;7386617;19;20135;-76
2023/08/12 02:53:40;;;;;;;4.00;3.10;;;22.10;99.90;;;;;;7387470;19;20142;-76
2023/08/12 02:56:06;;;;;;;4.45;3.60;;;22.10;99.90;;;;;;7384374;19;20599;-76
2023/08/12 02:58:31;;;;;;;4.32;3.60;;;22.20;99.90;;;;;;7385415;19;20591;-75
2023/08/12 03:00:57;;;;;;;5.95;3.53;;;22.10;99.90;;;;;;7384381;19;20582;-76
2023/08/12 03:03:25;;;;;;;5.80;3.50;;;22.20;99.90;;;;;;7383970;19;20191;-75
2023/08/12 03:05:51;;;;;;;5.40;3.60;;;22.10;99.90;;;;;;7384495;19;20134;-75
2023/08/12 03:08:16;;;;;;;9.65;4.68;;;22.20;99.90;;;;;;7383318;19;20158;-76
2023/08/12 03:10:42;;;;;;;6.45;4.10;;;22.20;99.90;;;;;;7384160;19;20166;-75
2023/08/12 03:13:09;;;;;;;3.88;3.42;;;22.20;99.90;;;;;;7386227;19;20690;-76
2023/08/12 03:15:38;;;;;;;6.28;4.00;;;22.10;99.90;;;;;;7392954;19;20230;-76
2023/08/12 03:18:04;;;;;;;4.68;3.40;;;22.10;99.90;;;;;;7393187;19;20135;-76
2023/08/12 03:20:29;;;;;;;4.75;3.50;;;22.10;99.90;;;;;;7391635;19;20145;-75
2023/08/12 03:22:55;;;;;;;6.93;3.92;;;22.10;99.90;;;;;;7391947;19;20149;-76
2023/08/12 03:25:22;;;;;;;5.45;3.45;;;22.10;99.90;;;;;;7391544;19;20142;-76
2023/08/12 03:27:47;;;;;;;5.93;3.92;;;22.00;99.90;;;;;;7390402;19;20137;-76
2023/08/12 03:30:14;;;;;;;5.75;3.90;;;22.10;99.90;;;;;;7391538;19;20146;-75
2023/08/12 03:32:40;;;;;;;4.32;3.60;;;22.10;99.90;;;;;;7390354;19;20137;-75
2023/08/12 03:35:06;;;;;;;4.45;3.33;;;22.10;99.90;;;;;;7391679;19;20139;-75
2023/08/12 03:37:32;;;;;;;3.35;3.03;;;22.10;99.90;;;;;;7391601;19;20490;-75
2023/08/12 03:39:58;;;;;;;4.93;3.47;;;22.10;99.90;;;;;;7391630;19;20932;-76
2023/08/12 03:42:24;;;;;;;6.63;3.53;;;22.10;99.90;;;;;;7392791;19;20134;-75
2023/08/12 03:44:49;;;;;;;6.18;3.53;;;22.20;99.90;;;;;;7391014;19;20138;-76
2023/08/12 03:47:15;;;;;;;5.38;3.90;;;22.30;99.90;;;;;;7393215;19;20133;-75
2023/08/12 03:49:41;;;;;;;4.13;3.35;;;22.20;99.90;;;;;;7389990;19;20454;-75
2023/08/12 03:52:07;;;;;;;4.10;3.67;;;22.30;99.90;;;;;;7391402;19;20593;-76
2023/08/12 03:54:33;;;;;;;7.47;4.20;;;22.10;99.90;;;;;;7393899;19;20127;-75
2023/08/12 03:56:59;;;;;;;4.18;3.20;;;21.90;99.90;;;;;;7390942;19;20654;-75
2023/08/12 03:59:25;;;;;;;9.65;4.53;;;21.90;99.90;;;;;;7383203;19;20152;-75
2023/08/12 04:01:51;;;;;;;5.40;4.30;;;22.20;99.90;;;;;;7389546;19;20634;-75
2023/08/12 04:04:17;;;;;;;4.78;4.25;;;22.20;99.90;;;;;;7388124;19;20220;-76
2023/08/12 04:06:42;;;;;;;6.05;4.10;;;22.10;99.90;;;;;;7388568;19;20138;-75
2023/08/12 04:09:08;;;;;;;5.07;4.18;;;22.10;99.90;;;;;;7391171;19;20141;-75
2023/08/12 04:11:34;;;;;;;4.75;3.58;;;22.00;99.90;;;;;;7391873;19;20602;-75
2023/08/12 04:13:59;;;;;;;8.05;3.83;;;21.90;99.90;;;;;;7391485;19;20137;-76
2023/08/12 04:16:25;;;;;;;5.75;3.45;;;21.80;99.90;;;;;;7388883;19;20173;-75
2023/08/12 04:18:51;;;;;;;4.55;3.50;;;21.90;99.90;;;;;;7391140;19;20142;-75
2023/08/12 04:21:17;;;;;;;7.63;3.95;;;21.70;99.90;;;;;;7388056;19;20161;-75
2023/08/12 04:23:43;;;;;;;4.57;3.58;;;21.70;99.90;;;;;;7387306;19;20215;-76
2023/08/12 04:26:09;;;;;;;5.07;4.03;;;22.00;99.90;;;;;;7388622;19;20700;-76
2023/08/12 04:28:34;;;;;;;4.95;3.53;;;22.00;99.90;;;;;;7390119;19;20138;-75
2023/08/12 04:31:00;;;;;;;4.93;3.80;;;22.10;99.90;;;;;;7390767;19;20126;-75
2023/08/12 04:33:26;;;;;;;4.22;3.55;;;22.00;99.90;;;;;;7390654;19;20577;-75
2023/08/12 04:35:52;;;;;;;5.18;4.05;;;22.10;99.90;;;;;;7390435;19;20157;-74
2023/08/12 04:38:18;;;;;;;4.43;3.70;;;22.00;99.90;;;;;;7387831;19;20146;-75
2023/08/12 04:40:44;;;;;;;3.78;3.30;;;21.90;99.90;;;;;;7388976;19;20139;-74
2023/08/12 04:43:11;;;;;;;4.90;3.50;;;21.90;99.90;;;;;;7388934;19;20142;-74
2023/08/12 04:45:38;;;;;;;6.05;3.63;;;21.80;99.90;;;;;;7389722;19;20150;-75
2023/08/12 04:48:04;;;;;;;4.82;3.88;;;21.70;99.90;;;;;;7390276;19;20137;-75
2023/08/12 04:50:31;;;;;;;4.10;3.20;;;21.70;99.90;;;;;;7389002;19;20632;-75
2023/08/12 04:52:57;;;;;;;3.40;3.10;;;21.80;99.90;;;;;;7389888;19;20178;-74
2023/08/12 04:55:25;;;;;;;3.85;3.05;;;21.90;99.90;;;;;;7390850;19;20459;-75
2023/08/12 04:57:51;;;;;;;4.25;3.55;;;21.80;99.90;;;;;;7389369;19;20237;-74
2023/08/12 05:00:17;;;;;;;4.88;4.03;;;21.80;99.90;;;;;;7389575;19;20154;-75
2023/08/12 05:02:43;;;;;;;5.20;3.55;;;22.00;99.90;;;;;;7387242;19;20154;-76
2023/08/12 05:05:09;;;;;;;4.90;3.78;;;22.10;99.90;;;;;;7386126;19;20528;-75
2023/08/12 05:07:34;;;;;;;4.47;3.45;;;22.10;99.90;;;;;;7388900;19;20589;-75
2023/08/12 05:10:01;;;;;;;6.55;3.58;;;22.10;99.90;;;;;;7387563;19;20145;-75
2023/08/12 05:12:27;;;;;;;5.47;3.28;;;22.00;99.90;;;;;;7388724;19;20142;-75
2023/08/12 05:14:52;;;;;;;4.72;3.30;;;22.00;99.90;;;;;;7390149;19;20135;-75
2023/08/12 05:17:18;;;;;;;5.70;3.67;;;21.90;99.90;;;;;;7390155;19;20134;-76
2023/08/12 05:19:44;;;;;;;3.72;2.90;;;22.00;99.90;;;;;;7388279;19;20460;-75
2023/08/12 05:22:10;;;;;;;5.38;3.63;;;22.10;99.90;;;;;;7386356;19;20135;-76
2023/08/12 05:24:36;;;;;;;5.38;3.03;;;22.10;99.90;;;;;;7388207;19;20135;-76
2023/08/12 05:27:02;;;;;;;4.10;3.42;;;22.00;99.90;;;;;;7386977;19;20177;-75
2023/08/12 05:29:27;;;;;;;4.38;3.55;;;22.00;99.90;;;;;;7387293;19;20141;-75
2023/08/12 05:31:53;;;;;;;6.57;3.75;;;22.10;99.90;;;;;;7387444;19;20711;-76
2023/08/12 05:34:19;;;;;;;4.47;3.50;;;22.20;99.90;;;;;;7387435;19;20582;-76
2023/08/12 05:36:45;;;;;;;3.97;3.28;;;22.20;99.90;;;;;;7383831;19;20453;-75
2023/08/12 05:39:10;;;;;;;7.10;3.80;;;22.30;99.90;;;;;;7388924;19;20169;-75
2023/08/12 05:41:36;;;;;;;5.82;3.97;;;22.50;99.90;;;;;;7389407;19;20142;-77
2023/08/12 05:44:02;;;;;;;4.70;3.90;;;22.40;99.90;;;;;;7390391;19;20142;-80
2023/08/12 05:46:28;;;;;;;6.45;4.10;;;22.30;99.90;;;;;;7392262;19;20137;-82
2023/08/12 05:48:54;;;;;;;4.65;3.90;;;22.20;99.90;;;;;;7391534;19;20839;-78
2023/08/12 05:51:20;;;;;;;5.13;3.85;;;22.00;99.90;;;;;;7390090;19;20601;-79
2023/08/12 05:53:45;;;;;;;6.20;4.15;;;22.10;99.90;;;;;;7390134;19;20156;-78
2023/08/12 05:56:11;;;;;;;4.45;3.65;;;22.20;99.90;;;;;;7390705;19;20138;-79
2023/08/12 05:58:38;;;;;;;4.75;3.75;;;22.20;99.90;;;;;;7389836;19;20302;-80
2023/08/12 06:01:04;;;;;;;4.45;3.90;;;22.10;99.90;;;;;;7391049;19;20142;-79
2023/08/12 06:03:30;;;;;;;4.72;3.70;;;22.20;99.90;;;;;;7387555;19;20153;-80
2023/08/12 06:05:55;;;;;;;8.57;3.90;;;22.20;99.90;;;;;;7391362;19;20143;-79
2023/08/12 06:08:21;;;;;;;4.68;3.80;;;22.30;99.90;;;;;;7389734;19;20543;-78
2023/08/12 06:10:50;;;;;;;4.40;3.70;;;22.40;99.90;;;;;;7387925;19;20142;-76
2023/08/12 06:13:17;;;;;;;5.93;4.35;;;22.40;99.90;;;;;;7390272;19;20195;-75
2023/08/12 06:15:42;;;;;;;4.93;3.92;;;22.40;99.90;;;;;;7386869;19;20160;-77
2023/08/12 06:18:08;;;;;;;5.63;4.15;;;22.50;99.90;;;;;;7389431;19;20251;-75
2023/08/12 06:20:34;;;;;;;4.72;3.88;;;22.50;99.90;;;;;;7387080;19;20138;-76
2023/08/12 06:23:01;;;;;;;4.72;3.92;;;22.20;99.90;;;;;;7386195;19;20558;-76
2023/08/12 06:25:26;;;;;;;5.82;3.63;;;22.10;99.90;;;;;;7388607;19;20165;-76
2023/08/12 06:27:52;;;;;;;4.82;3.78;;;22.10;99.90;;;;;;7387162;19;20514;-76
2023/08/12 06:30:18;;;;;;;4.90;3.80;;;22.20;99.90;;;;;;7385240;19;20146;-77
2023/08/12 06:32:44;;;;;;;6.07;4.30;;;22.50;99.90;;;;;;7384904;19;20213;-77
2023/08/12 06:35:09;;;;;;;6.57;4.57;;;22.50;99.90;;;;;;7385292;19;20130;-76
2023/08/12 06:37:35;;;;;;;5.68;4.15;;;22.40;99.90;;;;;;7388746;19;20123;-77
2023/08/12 06:40:01;;;;;;;4.63;4.22;;;22.40;99.90;;;;;;7386537;19;20126;-77
2023/08/12 06:42:27;;;;;;;4.45;4.05;;;22.50;99.90;;;;;;7388004;19;20154;-77
2023/08/12 06:44:58;;;;;;;5.15;4.60;;;22.50;99.90;;;;;;7385986;19;20290;-77
2023/08/12 06:47:23;;;;;;;5.68;4.50;;;22.70;99.90;;;;;;7389681;19;20214;-77
2023/08/12 06:49:49;;;;;;;6.65;4.45;;;22.80;99.90;;;;;;7391346;19;20135;-78
2023/08/12 06:52:16;;;;;;;7.47;4.20;;;22.90;99.90;;;;;;7392561;19;20138;-78
2023/08/12 06:54:44;;;;;;;6.38;4.60;;;23.20;99.90;;;;;;7393535;19;20126;-77
2023/08/12 06:57:14;;;;;;;4.85;4.35;;;23.60;99.90;;;;;;7392993;19;20140;-77
2023/08/12 06:59:41;;;;;;;6.43;4.20;;;24.40;99.90;;;;;;7394497;19;20131;-75
2023/08/12 07:02:07;;;;;;;5.80;4.53;;;25.70;99.90;;;;;;7392894;19;20130;-76
2023/08/12 07:04:33;;;;;;;4.65;4.10;;;26.10;99.90;;;;;;7392270;19;20159;-76
2023/08/12 07:06:59;;;;;;;6.93;4.18;;;26.40;99.90;;;;;;7393918;19;20611;-75
2023/08/12 07:09:25;;;;;;;6.93;3.92;;;26.10;99.90;;;;;;7392760;19;20597;-76
2023/08/12 07:11:51;;;;;;;5.38;4.20;;;25.60;99.90;;;;;;7393035;19;20138;-76
2023/08/12 07:14:16;;;;;;;5.85;4.60;;;25.80;99.90;;;;;;7392353;19;20139;-76
2023/08/12 07:16:42;;;;;;;7.75;4.97;;;26.20;99.90;;;;;;7389867;19;20193;-77
2023/08/12 07:19:08;;;;;;;5.28;4.05;;;26.80;99.90;;;;;;7390308;19;20141;-77
2023/08/12 07:21:34;;;;;;;4.90;3.83;;;27.40;99.90;;;;;;7391530;19;21157;-78
2023/08/12 07:23:59;;;;;;;4.80;4.10;;;27.60;99.90;;;;;;7391125;19;20158;-79
2023/08/12 07:26:25;;;;;;;5.25;4.10;;;26.90;99.90;;;;;;7391182;19;20138;-78
2023/08/12 07:28:51;;;;;;;4.03;3.63;;;26.20;99.90;;;;;;7391761;19;20135;-77
2023/08/12 07:31:24;;;;;;;4.22;3.80;;;26.10;99.90;;;;;;7391618;19;20135;-80
2023/08/12 07:33:50;;;;;;;6.93;5.20;;;26.60;99.90;;;;;;7391491;19;20134;-78
2023/08/12 07:36:16;;;;;;;4.70;4.20;;;27.20;99.90;;;;;;7392766;19;20560;-77
2023/08/12 07:38:41;;;;;;;5.53;3.97;;;27.70;99.90;;;;;;7392043;19;20173;-78
2023/08/12 07:41:07;;;;;;;6.00;4.07;;;28.00;99.90;;;;;;7391140;19;20461;-78
2023/08/12 07:43:33;;;;;;;5.85;4.25;;;28.10;99.90;;;;;;7389905;19;20157;-78
2023/08/12 07:45:58;;;;;;;7.25;4.60;;;28.50;99.90;;;;;;7390193;19;20138;-77
2023/08/12 07:48:24;;;;;;;3.60;3.28;;;28.80;99.90;;;;;;7390964;19;20525;-77
2023/08/12 07:50:59;;;;;;;6.90;4.05;;;28.50;99.90;;;;;;7391135;19;20157;-77
2023/08/12 07:53:26;;;;;;;5.03;3.90;;;28.20;99.90;;;;;;7394156;19;20606;-78
2023/08/12 07:55:52;;;;;;;5.70;3.75;;;28.30;99.90;;;;;;7389109;19;20623;-77
2023/08/12 07:58:18;;;;;;;6.13;4.00;;;28.30;99.90;;;;;;7392649;19;20194;-78
2023/08/12 08:00:44;;;;;;;4.68;3.67;;;28.40;99.90;;;;;;7389409;19;20159;-80
2023/08/12 08:03:09;;;;;;;7.25;3.63;;;28.50;99.90;;;;;;7394514;19;20167;-80
2023/08/12 08:05:35;;;;;;;6.45;3.72;;;28.60;99.90;;;;;;7395900;19;20142;-79
2023/08/12 08:08:01;;;;;;;10.52;4.10;;;28.90;99.90;;;;;;7394407;19;20140;-79
2023/08/12 08:10:26;;;;;;;4.22;3.63;;;28.80;99.90;;;;;;7392706;19;20153;-78
2023/08/12 08:12:53;;;;;;;4.25;3.53;;;28.80;99.90;;;;;;7391894;19;20171;-78
2023/08/12 08:15:18;;;;;;;4.22;3.20;;;29.20;99.90;;;;;;7391320;19;20157;-80
2023/08/12 08:17:44;;;;;;;4.05;3.22;;;29.70;99.90;;;;;;7392137;19;20131;-77
2023/08/12 08:20:10;;;;;;;6.57;3.72;;;29.90;99.90;;;;;;7392943;19;20171;-80
2023/08/12 08:22:36;;;;;;;4.40;3.60;;;30.20;99.90;;;;;;7392008;19;20157;-80
2023/08/12 08:25:05;;;;;;;5.90;3.50;;;30.00;99.90;;;;;;7393945;19;20156;-79
2023/08/12 08:27:31;;;;;;;6.18;3.20;;;30.30;99.90;;;;;;7393272;19;20178;-79
2023/08/12 08:29:57;;;;;;;5.57;3.75;;;29.70;99.90;;;;;;7392482;19;20202;-79
2023/08/12 08:32:23;;;;;;;4.68;3.92;;;29.30;99.90;;;;;;7394940;19;20154;-78
2023/08/12 08:34:49;;;;;;;3.95;3.55;;;28.90;99.90;;;;;;7392969;19;20614;-78
2023/08/12 08:37:14;;;;;;;5.53;4.70;;;29.00;99.90;;;;;;7392828;19;20466;-79
2023/08/12 08:39:40;;;;;;;5.55;4.20;;;29.40;99.90;;;;;;7392438;19;20150;-78
2023/08/12 08:42:08;;;;;;;5.85;4.00;;;29.40;99.90;;;;;;7392707;19;20134;-75
2023/08/12 08:44:36;;;;;;;4.93;3.70;;;29.20;99.90;;;;;;7386916;19;20213;-75
2023/08/12 08:47:03;;;;;;;6.03;4.07;;;28.90;99.90;;;;;;7391468;19;20856;-75
2023/08/12 08:49:29;;;;;;;6.93;4.45;;;28.60;99.90;;;;;;7389046;19;20701;-75
2023/08/12 08:51:56;;;;;;;4.50;3.90;;;28.40;99.90;;;;;;7390886;19;20142;-77
2023/08/12 08:54:22;;;;;;;5.55;3.78;;;28.10;99.90;;;;;;7387913;19;20166;-76
2023/08/12 08:56:49;;;;;;;6.85;3.85;;;27.90;99.90;;;;;;7388885;19;20605;-76
2023/08/12 08:59:15;;;;;;;6.18;4.00;;;27.90;99.90;;;;;;7388799;19;20158;-76
2023/08/12 09:01:48;;;;;;;5.20;3.50;;;27.80;99.90;;;;;;7386051;19;20149;-76
2023/08/12 09:04:15;;;;;;;4.50;3.70;;;27.90;99.90;;;;;;7384535;19;20150;-76
2023/08/12 09:06:42;;;;;;;4.65;3.90;;;27.90;99.90;;;;;;7388572;19;20582;-75
2023/08/12 09:09:13;;;;;;;7.15;3.80;;;27.80;99.90;;;;;;7389576;19;20251;-76
2023/08/12 09:11:40;;;;;;;5.88;3.45;;;27.70;99.90;;;;;;7389090;19;20138;-76
2023/08/12 09:14:06;;;;;;;7.57;3.63;;;27.80;99.90;;;;;;7391158;19;20135;-76
2023/08/12 09:16:32;;;;;;;4.53;3.53;;;28.00;99.90;;;;;;7387087;19;20150;-75
2023/08/12 09:18:58;;;;;;;5.63;3.63;;;28.00;99.90;;;;;;7388264;19;20198;-76
2023/08/12 09:21:24;;;;;;;4.80;3.50;;;28.00;99.90;;;;;;7389731;19;20161;-76
2023/08/12 09:23:50;;;;;;;5.72;3.60;;;27.90;99.90;;;;;;7385606;19;20134;-76
2023/08/12 09:26:17;;;;;;;4.35;3.28;;;28.00;99.90;;;;;;7387716;19;20156;-75
2023/08/12 09:28:43;;;;;;;3.90;3.60;;;28.20;99.90;;;;;;7388117;19;20142;-77
2023/08/12 09:31:28;;;;;;;3.97;3.40;;;28.40;99.90;;;;;;7388035;19;20160;-76
2023/08/12 09:33:59;;;;;;;6.53;3.60;;;28.80;99.90;;;;;;7388064;19;20515;-76
2023/08/12 09:36:28;;;;;;;6.60;3.55;;;28.70;99.90;;;;;;7389262;19;20139;-76
2023/08/12 09:38:55;;;;;;;4.18;3.47;;;28.70;99.90;;;;;;7388805;19;20607;-75
2023/08/12 09:41:24;;;;;;;5.93;4.82;;;28.60;99.90;;;;;;7386642;19;20491;-75
2023/08/12 09:43:54;;;;;;;5.68;3.30;;;28.70;99.90;;;;;;7385870;19;20167;-74
2023/08/12 09:46:22;;;;;;;3.90;3.40;;;28.80;99.90;;;;;;7389088;19;20617;-76
2023/08/12 09:48:51;;;;;;;6.85;3.33;;;28.90;99.90;;;;;;7387298;19;20291;-75
2023/08/12 09:51:17;;;;;;;6.82;3.22;;;29.00;99.90;;;;;;7389884;19;20142;-75
2023/08/12 09:53:43;;;;;;;4.00;3.20;;;29.00;99.90;;;;;;7387662;19;20154;-76
2023/08/12 09:56:11;;;;;;;6.20;3.25;;;28.90;99.90;;;;;;7387733;19;20179;-76
2023/08/12 09:58:39;;;;;;;3.38;2.97;;;28.90;99.90;;;;;;7386133;19;20139;-76
2023/08/12 10:01:07;;;;;;;4.65;2.78;;;29.00;99.90;;;;;;7387394;19;20455;-75
2023/08/12 10:03:35;;;;;;;8.52;3.10;;;29.00;99.90;;;;;;7386633;19;20157;-75
2023/08/12 10:06:04;;;;;;;3.42;2.20;;;29.10;99.90;;;;;;7389442;19;20590;-76
2023/08/12 10:08:32;;;;;;;3.55;2.97;;;29.00;99.90;;;;;;7389603;19;20137;-75
2023/08/12 10:10:58;;;;;;;4.78;3.20;;;28.80;99.90;;;;;;7387838;19;20159;-75
2023/08/12 10:13:24;;;;;;;5.55;3.58;;;28.50;99.90;;;;;;7388939;19;20134;-76
2023/08/12 10:15:50;;;;;;;6.93;3.17;;;28.20;99.90;;;;;;7387341;19;20481;-76
2023/08/12 10:18:18;;;;;;;3.72;2.83;;;27.70;99.90;;;;;;7386794;19;20134;-75
2023/08/12 10:20:45;;;;;;;5.30;3.83;;;27.40;99.90;;;;;;7384169;19;20139;-75
2023/08/12 10:23:16;;;;;;;8.38;3.30;;;27.50;99.90;;;;;;7389810;19;20152;-76
2023/08/12 10:25:43;;;;;;;13.30;7.75;;;27.50;99.90;;;;;;7391799;19;20165;-75
2023/08/12 10:28:10;;;;;;;3.78;3.13;;;27.50;99.90;;;;;;7389391;19;20142;-75
2023/08/12 10:30:39;;;;;;;5.15;3.25;;;27.60;99.90;;;;;;7390896;19;20181;-75
2023/08/12 10:33:06;;;;;;;4.93;3.75;;;27.70;99.90;;;;;;7393492;19;20148;-73
2023/08/12 10:35:46;;;;;;;3.85;2.70;;;27.90;99.90;;;;;;7393163;19;20246;-74
2023/08/12 10:38:16;;;;;;;3.10;2.80;;;28.00;99.90;;;;;;7392028;19;20126;-74
2023/08/12 10:40:42;;;;;;;4.93;3.13;;;28.10;99.90;;;;;;7394065;19;20198;-73
2023/08/12 10:43:08;;;;;;;4.72;3.40;;;28.40;99.90;;;;;;7392987;19;20119;-74
2023/08/12 10:45:49;;;;;;;4.47;2.83;;;28.80;99.90;;;;;;7394035;19;20142;-74
2023/08/12 10:48:21;;;;;;;4.22;2.85;;;29.00;99.90;;;;;;7392474;19;20222;-74
2023/08/12 10:50:59;;;;;;;6.20;3.40;;;29.20;99.90;;;;;;7389873;19;20161;-75
2023/08/12 10:53:33;;;;;;;5.25;3.67;;;29.40;99.90;;;;;;7392233;19;20138;-74
2023/08/12 10:56:01;;;;;;;3.00;2.53;;;29.20;99.90;;;;;;7391076;19;20197;-74
2023/08/12 10:58:47;;;;;;;2.53;2.20;;;29.00;99.90;;;;;;7389037;19;20139;-76
2023/08/12 11:01:26;;;;;;;3.38;2.13;;;29.20;99.90;;;;;;7393661;19;20142;-75
2023/08/12 11:03:53;;;;;;;2.70;2.20;;;29.60;99.90;;;;;;7390191;19;20151;-75
2023/08/12 11:06:19;;;;;;;2.83;2.40;;;30.00;99.90;;;;;;7391898;19;20716;-75
2023/08/12 11:08:52;;;;;;;2.45;2.20;;;30.30;99.90;;;;;;7393557;19;20146;-75
2023/08/12 11:11:25;;;;;;;3.20;2.25;;;30.30;99.90;;;;;;7390887;19;20154;-75
2023/08/12 11:13:58;;;;;;;2.55;2.15;;;30.50;99.90;;;;;;7393011;19;20171;-74
2023/08/12 11:16:37;;;;;;;2.95;2.10;;;30.60;99.90;;;;;;7394158;19;20138;-76
2023/08/12 11:19:04;;;;;;;12.02;9.55;;;30.50;99.90;;;;;;7392427;19;20154;-76
2023/08/12 11:21:30;;;;;;;4.32;3.08;;;30.60;99.90;;;;;;7394074;19;20158;-76
2023/08/12 11:23:55;;;;;;;2.40;2.15;;;30.70;99.90;;;;;;7392185;19;20134;-75
2023/08/12 11:26:24;;;;;;;2.15;1.95;;;30.90;99.90;;;;;;7390798;19;20161;-74
2023/08/12 11:28:50;;;;;;;3.15;2.00;;;30.90;99.90;;;;;;7392190;19;20472;-74
2023/08/12 11:31:17;;;;;;;3.50;1.90;;;30.80;99.90;;;;;;7392261;19;20139;-75
2023/08/12 11:33:43;;;;;;;2.63;2.40;;;30.60;99.90;;;;;;7392722;19;20141;-75
2023/08/12 11:36:09;;;;;;;3.45;1.95;;;30.60;99.90;;;;;;7392602;19;20142;-75
2023/08/12 11:38:35;;;;;;;4.80;1.70;;;30.60;99.90;;;;;;7392586;19;20161;-75
2023/08/12 11:41:02;;;;;;;2.75;1.90;;;30.60;99.90;;;;;;7391080;19;20142;-75
2023/08/12 11:43:30;;;;;;;2.47;2.03;;;30.70;99.90;;;;;;7392691;19;20143;-76
2023/08/12 11:45:59;;;;;;;3.33;2.00;;;30.80;99.90;;;;;;7392152;19;20423;-76
2023/08/12 11:48:27;;;;;;;3.00;2.15;;;30.80;99.90;;;;;;7391187;19;20155;-75
2023/08/12 11:50:54;;;;;;;3.17;2.00;;;30.90;99.90;;;;;;7391883;19;20469;-75
2023/08/12 11:53:20;;;;;;;2.40;2.00;;;30.90;99.90;;;;;;7390873;19;20257;-75
2023/08/12 11:55:46;;;;;;;3.75;2.33;;;31.00;99.90;;;;;;7390765;19;20744;-75
2023/08/12 11:58:13;;;;;;;4.35;2.38;;;31.10;99.90;;;;;;7391950;19;20169;-74
2023/08/12 12:00:39;;;;;;;2.85;1.98;;;31.10;99.90;;;;;;7390756;19;20520;-74
2023/08/12 12:03:06;;;;;;;2.55;2.30;;;31.00;99.90;;;;;;7389985;19;20135;-75
2023/08/12 12:05:35;;;;;;;4.97;2.47;;;30.70;99.90;;;;;;7393719;19;20138;-75
2023/08/12 12:08:01;;;;;;;3.10;2.08;;;30.50;99.90;;;;;;7392853;19;20167;-76
2023/08/12 12:10:30;;;;;;;3.53;2.45;;;30.10;99.90;;;;;;7393277;19;20575;-76
2023/08/12 12:13:11;;;;;;;3.28;2.40;;;29.10;99.90;;;;;;7392529;19;20139;-75
2023/08/12 12:15:43;;;;;;;5.13;3.00;;;28.50;99.90;;;;;;7392607;19;20155;-74
2023/08/12 12:18:13;;;;;;;3.38;2.90;;;28.10;99.90;;;;;;7392619;19;20158;-73
2023/08/12 12:21:03;;;;;;;5.63;2.80;;;27.30;99.90;;;;;;7390330;19;20174;-74
2023/08/12 12:23:29;;;;;;;4.35;2.83;;;27.00;99.90;;;;;;7389398;19;20172;-73
2023/08/12 12:26:02;;;;;;;3.75;2.70;;;26.60;99.90;;;;;;7391767;19;20495;-75
2023/08/12 12:28:28;;;;;;;4.93;2.80;;;26.50;99.90;;;;;;7390904;19;20161;-75
2023/08/12 12:30:54;;;;;;;4.60;2.70;;;26.40;99.90;;;;;;7394869;19;20149;-74
2023/08/12 12:33:20;;;;;;;4.72;3.13;;;26.10;99.90;;;;;;7389681;19;20607;-75
2023/08/12 12:35:46;;;;;;;4.95;3.22;;;25.70;99.90;;;;;;7393195;19;20160;-76
2023/08/12 12:38:11;;;;;;;7.25;2.90;;;25.40;99.90;;;;;;7390295;19;20131;-75
2023/08/12 12:40:38;;;;;;;4.32;3.00;;;25.30;99.90;;;;;;7389821;19;20587;-76
2023/08/12 12:43:04;;;;;;;7.82;4.60;;;25.30;99.90;;;;;;7389186;19;20139;-75
2023/08/12 12:45:30;;;;;;;3.63;3.25;;;25.30;99.90;;;;;;7391259;19;20172;-76